sensor_id;sensor_type;location;lat;lon;timestamp;temperature;humidity
1355;DHT22;671;48.972;9.276;2023-08-31T00:01:01;15.90;99.90
1355;DHT22;671;48.972;9.276;2023-08-31T00:03:31;15.90;99.90
1355;DHT22;671;48.972;9.276;2023-08-31T00:05:57;15.90;99.90
1355;DHT22;671;48.972;9.276;2023-08-31T00:08:24;15.80;99.90
1355;DHT22;671;48.972;9.276;2023-08-31T00:10:58;15.80;99.90
1355;DHT22;671;48.972;9.276;2023-08-31T00:13:24;15.70;99.90
1355;DHT22;671;48.972;9.276;2023-08-31T00:15:57;15.60;99.90
1355;DHT22;671;48.972;9.276;2023-08-31T00:18:24;15.60;99.90
1355;DHT22;671;48.972;9.276;2023-08-31T00:20:51;15.50;99.90
1355;DHT22;671;48.972;9.276;2023-08-31T00:23:18;15.40;99.90
1355;DHT22;671;48.972;9.276;2023-08-31T00:25:48;15.30;99.90
1355;DHT22;671;48.972;9.276;2023-08-31T00:28:15;15.20;99.90
1355;DHT22;671;48.972;9.276;2023-08-31T00:30:44;15.20;99.90
1355;DHT22;671;48.972;9.276;2023-08-31T00:33:12;15.00;99.90
1355;DHT22;671;48.972;9.276;2023-08-31T00:35:38;15.00;99.90
1355;DHT22;671;48.972;9.276;2023-08-31T00:38:12;14.90;99.90
1355;DHT22;671;48.972;9.276;2023-08-31T00:40:40;14.90;99.90
1355;DHT22;671;48.972;9.276;2023-08-31T00:43:13;14.80;99.90
1355;DHT22;671;48.972;9.276;2023-08-31T00:45:41;14.80;99.90
1355;DHT22;671;48.972;9.276;2023-08-31T00:48:08;14.70;99.90
1355;DHT22;671;48.972;9.276;2023-08-31T00:50:34;14.70;99.90
1355;DHT22;671;48.972;9.276;2023-08-31T00:53:01;14.60;99.90
1355;DHT22;671;48.972;9.276;2023-08-31T00:55:29;14.60;99.90
1355;DHT22;671;48.972;9.276;2023-08-31T00:57:56;14.60;99.90
1355;DHT22;671;48.972;9.276;2023-08-31T01:00:36;14.50;99.90
1355;DHT22;671;48.972;9.276;2023-08-31T01:03:13;14.40;99.90
1355;DHT22;671;48.972;9.276;2023-08-31T01:06:06;14.50;99.90
1355;DHT22;671;48.972;9.276;2023-08-31T01:11:21;14.50;99.90
1355;DHT22;671;48.972;9.276;2023-08-31T01:14:01;14.60;99.90
1355;DHT22;671;48.972;9.276;2023-08-31T01:16:32;14.60;99.90
1355;DHT22;671;48.972;9.276;2023-08-31T01:19:03;14.60;99.90
1355;DHT22;671;48.972;9.276;2023-08-31T01:21:33;14.50;99.90
1355;DHT22;671;48.972;9.276;2023-08-31T01:24:04;14.40;99.90
1355;DHT22;671;48.972;9.276;2023-08-31T01:26:30;14.40;99.90
1355;DHT22;671;48.972;9.276;2023-08-31T01:28:58;14.40;99.90
1355;DHT22;671;48.972;9.276;2023-08-31T01:31:25;14.30;99.90
1355;DHT22;671;48.972;9.276;2023-08-31T01:33:51;14.30;99.90
1355;DHT22;671;48.972;9.276;2023-08-31T01:36:28;14.20;99.90
1355;DHT22;671;48.972;9.276;2023-08-31T01:39:06;14.20;99.90
1355;DHT22;671;48.972;9.276;2023-08-31T01:41:36;14.10;99.90
1355;DHT22;671;48.972;9.276;2023-08-31T01:44:09;14.10;99.90
1355;DHT22;671;48.972;9.276;2023-08-31T01:46:40;14.00;99.90
1355;DHT22;671;48.972;9.276;2023-08-31T01:49:09;14.10;99.90
1355;DHT22;671;48.972;9.276;2023-08-31T01:51:36;14.00;99.90
1355;DHT22;671;48.972;9.276;2023-08-31T01:54:02;14.00;99.90
1355;DHT22;671;48.972;9.276;2023-08-31T01:56:29;14.00;99.90
1355;DHT22;671;48.972;9.276;2023-08-31T01:58:56;14.00;99.90
1355;DHT22;671;48.972;9.276;2023-08-31T02:01:22;14.10;99.90
1355;DHT22;671;48.972;9.276;2023-08-31T02:03:49;14.10;99.90
1355;DHT22;671;48.972;9.276;2023-08-31T02:06:15;14.20;99.90
1355;DHT22;671;48.972;9.276;2023-08-31T02:08:42;14.30;99.90
1355;DHT22;671;48.972;9.276;2023-08-31T02:11:10;14.30;99.90
1355;DHT22;671;48.972;9.276;2023-08-31T02:13:37;14.40;99.90
1355;DHT22;671;48.972;9.276;2023-08-31T02:16:03;14.40;99.90
1355;DHT22;671;48.972;9.276;2023-08-31T02:18:30;14.50;99.90
1355;DHT22;671;48.972;9.276;2023-08-31T02:20:56;14.50;99.90
1355;DHT22;671;48.972;9.276;2023-08-31T02:23:24;14.60;99.90
1355;DHT22;671;48.972;9.276;2023-08-31T02:25:50;14.60;99.90
1355;DHT22;671;48.972;9.276;2023-08-31T02:28:16;14.60;99.90
1355;DHT22;671;48.972;9.276;2023-08-31T02:30:45;14.60;99.90
1355;DHT22;671;48.972;9.276;2023-08-31T02:33:12;14.70;99.90
1355;DHT22;671;48.972;9.276;2023-08-31T02:35:39;14.60;99.90
1355;DHT22;671;48.972;9.276;2023-08-31T02:38:05;14.70;99.90
1355;DHT22;671;48.972;9.276;2023-08-31T02:40:32;14.70;99.90
1355;DHT22;671;48.972;9.276;2023-08-31T02:42:58;14.70;99.90
1355;DHT22;671;48.972;9.276;2023-08-31T02:45:24;14.70;99.90
1355;DHT22;671;48.972;9.276;2023-08-31T02:47:51;14.70;99.90
1355;DHT22;671;48.972;9.276;2023-08-31T02:50:18;14.70;99.90
1355;DHT22;671;48.972;9.276;2023-08-31T02:52:44;14.70;99.90
1355;DHT22;671;48.972;9.276;2023-08-31T02:55:11;14.70;99.90
1355;DHT22;671;48.972;9.276;2023-08-31T02:57:38;14.70;99.90
1355;DHT22;671;48.972;9.276;2023-08-31T03:00:05;14.70;99.90
1355;DHT22;671;48.972;9.276;2023-08-31T03:02:36;14.80;99.90
1355;DHT22;671;48.972;9.276;2023-08-31T03:05:03;14.80;99.90
1355;DHT22;671;48.972;9.276;2023-08-31T03:07:29;14.70;99.90
1355;DHT22;671;48.972;9.276;2023-08-31T03:09:56;14.70;99.90
1355;DHT22;671;48.972;9.276;2023-08-31T03:12:22;14.80;99.90
1355;DHT22;671;48.972;9.276;2023-08-31T03:14:49;14.80;99.90
1355;DHT22;671;48.972;9.276;2023-08-31T03:17:15;14.80;99.90
1355;DHT22;671;48.972;9.276;2023-08-31T03:19:42;14.80;99.90
1355;DHT22;671;48.972;9.276;2023-08-31T03:22:08;14.70;99.90
1355;DHT22;671;48.972;9.276;2023-08-31T03:24:35;14.80;99.90
1355;DHT22;671;48.972;9.276;2023-08-31T03:27:01;14.70;99.90
1355;DHT22;671;48.972;9.276;2023-08-31T03:29:29;14.60;99.90
1355;DHT22;671;48.972;9.276;2023-08-31T03:31:57;14.50;99.90
1355;DHT22;671;48.972;9.276;2023-08-31T03:34:24;14.50;99.90
1355;DHT22;671;48.972;9.276;2023-08-31T03:36:54;14.30;99.90
1355;DHT22;671;48.972;9.276;2023-08-31T03:39:21;14.30;99.90
1355;DHT22;671;48.972;9.276;2023-08-31T03:41:47;14.20;99.90
1355;DHT22;671;48.972;9.276;2023-08-31T03:44:14;14.30;99.90
1355;DHT22;671;48.972;9.276;2023-08-31T03:46:40;14.20;99.90
1355;DHT22;671;48.972;9.276;2023-08-31T03:49:07;14.00;99.90
1355;DHT22;671;48.972;9.276;2023-08-31T03:51:33;14.00;99.90
1355;DHT22;671;48.972;9.276;2023-08-31T03:54:00;13.90;99.90
1355;DHT22;671;48.972;9.276;2023-08-31T03:56:27;13.80;99.90
1355;DHT22;671;48.972;9.276;2023-08-31T03:58:54;13.80;99.90
1355;DHT22;671;48.972;9.276;2023-08-31T04:01:20;13.70;99.90
1355;DHT22;671;48.972;9.276;2023-08-31T04:03:47;13.70;99.90
1355;DHT22;671;48.972;9.276;2023-08-31T04:06:13;13.70;99.90
1355;DHT22;671;48.972;9.276;2023-08-31T04:08:40;13.70;99.90
1355;DHT22;671;48.972;9.276;2023-08-31T04:11:08;13.60;99.90
1355;DHT22;671;48.972;9.276;2023-08-31T04:13:34;13.60;99.90
1355;DHT22;671;48.972;9.276;2023-08-31T04:16:00;13.60;99.90
1355;DHT22;671;48.972;9.276;2023-08-31T04:18:27;13.60;99.90
1355;DHT22;671;48.972;9.276;2023-08-31T04:20:54;13.60;99.90
1355;DHT22;671;48.972;9.276;2023-08-31T04:23:21;13.60;99.90
1355;DHT22;671;48.972;9.276;2023-08-31T04:25:47;13.60;99.90
1355;DHT22;671;48.972;9.276;2023-08-31T04:28:14;13.60;99.90
1355;DHT22;671;48.972;9.276;2023-08-31T04:30:40;13.60;99.90
1355;DHT22;671;48.972;9.276;2023-08-31T04:33:07;13.60;99.90
1355;DHT22;671;48.972;9.276;2023-08-31T04:35:34;13.60;99.90
1355;DHT22;671;48.972;9.276;2023-08-31T04:38:00;13.60;99.90
1355;DHT22;671;48.972;9.276;2023-08-31T04:40:30;13.60;99.90
1355;DHT22;671;48.972;9.276;2023-08-31T04:42:56;13.60;99.90
1355;DHT22;671;48.972;9.276;2023-08-31T04:45:23;13.50;99.90
1355;DHT22;671;48.972;9.276;2023-08-31T04:47:49;13.60;99.90
1355;DHT22;671;48.972;9.276;2023-08-31T04:50:17;13.50;99.90
1355;DHT22;671;48.972;9.276;2023-08-31T04:52:44;13.50;99.90
1355;DHT22;671;48.972;9.276;2023-08-31T04:55:12;13.50;99.90
1355;DHT22;671;48.972;9.276;2023-08-31T04:57:39;13.50;99.90
1355;DHT22;671;48.972;9.276;2023-08-31T05:00:06;13.50;99.90
1355;DHT22;671;48.972;9.276;2023-08-31T05:02:36;13.60;99.90
1355;DHT22;671;48.972;9.276;2023-08-31T05:05:04;13.50;99.90
1355;DHT22;671;48.972;9.276;2023-08-31T05:07:31;13.50;99.90
1355;DHT22;671;48.972;9.276;2023-08-31T05:09:57;13.50;99.90
1355;DHT22;671;48.972;9.276;2023-08-31T05:12:24;13.50;99.90
1355;DHT22;671;48.972;9.276;2023-08-31T05:14:50;13.50;99.90
1355;DHT22;671;48.972;9.276;2023-08-31T05:17:17;13.50;99.90
1355;DHT22;671;48.972;9.276;2023-08-31T05:19:43;13.50;99.90
1355;DHT22;671;48.972;9.276;2023-08-31T05:22:10;13.50;99.90
1355;DHT22;671;48.972;9.276;2023-08-31T05:24:37;13.40;99.90
1355;DHT22;671;48.972;9.276;2023-08-31T05:27:03;13.50;99.90
1355;DHT22;671;48.972;9.276;2023-08-31T05:29:30;13.70;99.90
1355;DHT22;671;48.972;9.276;2023-08-31T05:31:56;13.80;99.90
1355;DHT22;671;48.972;9.276;2023-08-31T05:34:24;13.90;99.90
1355;DHT22;671;48.972;9.276;2023-08-31T05:36:50;13.80;99.90
1355;DHT22;671;48.972;9.276;2023-08-31T05:39:17;13.90;99.90
1355;DHT22;671;48.972;9.276;2023-08-31T05:41:43;13.80;99.90
1355;DHT22;671;48.972;9.276;2023-08-31T05:44:10;13.90;99.90
1355;DHT22;671;48.972;9.276;2023-08-31T05:46:37;13.90;99.90
1355;DHT22;671;48.972;9.276;2023-08-31T05:49:04;13.90;99.90
1355;DHT22;671;48.972;9.276;2023-08-31T05:51:31;14.00;99.90
1355;DHT22;671;48.972;9.276;2023-08-31T05:53:58;14.00;99.90
1355;DHT22;671;48.972;9.276;2023-08-31T05:56:24;14.10;99.90
1355;DHT22;671;48.972;9.276;2023-08-31T05:58:51;14.10;99.90
1355;DHT22;671;48.972;9.276;2023-08-31T06:01:21;14.20;99.90
1355;DHT22;671;48.972;9.276;2023-08-31T06:03:48;14.20;99.90
1355;DHT22;671;48.972;9.276;2023-08-31T06:06:15;14.30;99.90
1355;DHT22;671;48.972;9.276;2023-08-31T06:08:41;14.30;99.90
1355;DHT22;671;48.972;9.276;2023-08-31T06:11:09;14.30;99.90
1355;DHT22;671;48.972;9.276;2023-08-31T06:13:37;14.20;99.90
1355;DHT22;671;48.972;9.276;2023-08-31T06:16:03;14.20;99.90
1355;DHT22;671;48.972;9.276;2023-08-31T06:18:30;14.20;99.90
1355;DHT22;671;48.972;9.276;2023-08-31T06:20:56;14.30;99.90
1355;DHT22;671;48.972;9.276;2023-08-31T06:23:23;14.30;99.90
1355;DHT22;671;48.972;9.276;2023-08-31T06:25:49;14.30;99.90
1355;DHT22;671;48.972;9.276;2023-08-31T06:28:16;14.40;99.90
1355;DHT22;671;48.972;9.276;2023-08-31T06:30:43;14.30;99.90
1355;DHT22;671;48.972;9.276;2023-08-31T06:33:15;14.40;99.90
1355;DHT22;671;48.972;9.276;2023-08-31T06:35:42;14.40;99.90
1355;DHT22;671;48.972;9.276;2023-08-31T06:38:08;14.60;99.90
1355;DHT22;671;48.972;9.276;2023-08-31T06:40:35;14.90;99.90
1355;DHT22;671;48.972;9.276;2023-08-31T06:43:01;15.10;99.90
1355;DHT22;671;48.972;9.276;2023-08-31T06:45:28;15.40;99.90
1355;DHT22;671;48.972;9.276;2023-08-31T06:47:55;15.70;99.90
1355;DHT22;671;48.972;9.276;2023-08-31T06:50:21;15.90;99.90
1355;DHT22;671;48.972;9.276;2023-08-31T06:52:48;16.00;99.90
1355;DHT22;671;48.972;9.276;2023-08-31T06:55:15;16.20;99.90
1355;DHT22;671;48.972;9.276;2023-08-31T06:57:41;16.20;99.90
1355;DHT22;671;48.972;9.276;2023-08-31T07:00:09;16.30;99.90
1355;DHT22;671;48.972;9.276;2023-08-31T07:02:41;16.40;99.90
1355;DHT22;671;48.972;9.276;2023-08-31T07:05:09;16.60;99.90
1355;DHT22;671;48.972;9.276;2023-08-31T07:07:36;16.60;99.90
1355;DHT22;671;48.972;9.276;2023-08-31T07:10:03;16.70;99.90
1355;DHT22;671;48.972;9.276;2023-08-31T07:12:31;16.80;99.90
1355;DHT22;671;48.972;9.276;2023-08-31T07:14:58;17.00;99.90
1355;DHT22;671;48.972;9.276;2023-08-31T07:17:24;17.00;99.90
1355;DHT22;671;48.972;9.276;2023-08-31T07:19:52;17.10;99.90
1355;DHT22;671;48.972;9.276;2023-08-31T07:22:18;17.30;99.90
1355;DHT22;671;48.972;9.276;2023-08-31T07:24:45;17.40;99.90
1355;DHT22;671;48.972;9.276;2023-08-31T07:27:11;17.50;99.90
1355;DHT22;671;48.972;9.276;2023-08-31T07:29:38;17.60;99.90
1355;DHT22;671;48.972;9.276;2023-08-31T07:32:04;17.80;99.90
1355;DHT22;671;48.972;9.276;2023-08-31T07:34:31;17.80;99.90
1355;DHT22;671;48.972;9.276;2023-08-31T07:36:59;17.90;99.90
1355;DHT22;671;48.972;9.276;2023-08-31T07:39:25;17.90;99.90
1355;DHT22;671;48.972;9.276;2023-08-31T07:41:54;18.10;99.90
1355;DHT22;671;48.972;9.276;2023-08-31T07:44:20;18.30;99.90
1355;DHT22;671;48.972;9.276;2023-08-31T07:46:47;18.50;99.90
1355;DHT22;671;48.972;9.276;2023-08-31T07:49:14;18.60;99.90
1355;DHT22;671;48.972;9.276;2023-08-31T07:51:40;18.60;99.90
1355;DHT22;671;48.972;9.276;2023-08-31T07:54:07;18.70;99.90
1355;DHT22;671;48.972;9.276;2023-08-31T07:56:33;18.90;99.90
1355;DHT22;671;48.972;9.276;2023-08-31T07:59:00;18.90;99.90
1355;DHT22;671;48.972;9.276;2023-08-31T08:01:26;19.00;99.90
1355;DHT22;671;48.972;9.276;2023-08-31T08:03:53;19.00;99.90
1355;DHT22;671;48.972;9.276;2023-08-31T08:06:20;18.90;99.90
1355;DHT22;671;48.972;9.276;2023-08-31T08:08:46;18.90;99.90
1355;DHT22;671;48.972;9.276;2023-08-31T08:11:13;18.90;99.90
1355;DHT22;671;48.972;9.276;2023-08-31T08:13:39;18.90;99.90
1355;DHT22;671;48.972;9.276;2023-08-31T08:16:06;18.90;99.90
1355;DHT22;671;48.972;9.276;2023-08-31T08:18:32;19.10;99.90
1355;DHT22;671;48.972;9.276;2023-08-31T08:20:59;19.00;99.90
1355;DHT22;671;48.972;9.276;2023-08-31T08:23:25;19.00;99.90
1355;DHT22;671;48.972;9.276;2023-08-31T08:25:52;19.10;99.90
1355;DHT22;671;48.972;9.276;2023-08-31T08:28:18;19.10;99.90
1355;DHT22;671;48.972;9.276;2023-08-31T08:30:45;19.20;99.90
1355;DHT22;671;48.972;9.276;2023-08-31T08:33:11;19.30;99.90
1355;DHT22;671;48.972;9.276;2023-08-31T08:35:38;19.40;99.90
1355;DHT22;671;48.972;9.276;2023-08-31T08:38:05;19.40;99.90
1355;DHT22;671;48.972;9.276;2023-08-31T08:40:32;19.50;99.90
1355;DHT22;671;48.972;9.276;2023-08-31T08:43:00;19.60;99.90
1355;DHT22;671;48.972;9.276;2023-08-31T08:45:35;19.70;99.90
1355;DHT22;671;48.972;9.276;2023-08-31T08:48:05;19.90;99.90
1355;DHT22;671;48.972;9.276;2023-08-31T08:50:34;20.00;99.90
1355;DHT22;671;48.972;9.276;2023-08-31T08:53:02;20.00;99.90
1355;DHT22;671;48.972;9.276;2023-08-31T08:55:29;19.90;99.90
1355;DHT22;671;48.972;9.276;2023-08-31T08:57:58;19.90;99.90
1355;DHT22;671;48.972;9.276;2023-08-31T09:00:29;20.10;99.90
1355;DHT22;671;48.972;9.276;2023-08-31T09:02:56;20.00;99.90
1355;DHT22;671;48.972;9.276;2023-08-31T09:05:23;20.00;99.90
1355;DHT22;671;48.972;9.276;2023-08-31T09:08:04;20.10;99.90
1355;DHT22;671;48.972;9.276;2023-08-31T09:10:41;20.00;99.90
1355;DHT22;671;48.972;9.276;2023-08-31T09:13:09;19.90;99.90
1355;DHT22;671;48.972;9.276;2023-08-31T09:15:47;19.80;99.90
1355;DHT22;671;48.972;9.276;2023-08-31T09:18:25;19.80;99.90
1355;DHT22;671;48.972;9.276;2023-08-31T09:20:52;19.90;99.90
1355;DHT22;671;48.972;9.276;2023-08-31T09:23:19;20.10;99.90
1355;DHT22;671;48.972;9.276;2023-08-31T09:25:48;20.20;99.90
1355;DHT22;671;48.972;9.276;2023-08-31T09:28:23;20.40;99.90
1355;DHT22;671;48.972;9.276;2023-08-31T09:30:50;20.30;99.90
1355;DHT22;671;48.972;9.276;2023-08-31T09:33:20;20.30;99.90
1355;DHT22;671;48.972;9.276;2023-08-31T09:35:56;20.20;99.90
1355;DHT22;671;48.972;9.276;2023-08-31T09:38:22;20.20;99.90
1355;DHT22;671;48.972;9.276;2023-08-31T09:40:49;20.30;99.90
1355;DHT22;671;48.972;9.276;2023-08-31T09:43:20;20.40;99.90
1355;DHT22;671;48.972;9.276;2023-08-31T09:45:47;20.60;99.90
1355;DHT22;671;48.972;9.276;2023-08-31T09:48:15;20.70;99.90
1355;DHT22;671;48.972;9.276;2023-08-31T09:50:44;20.70;99.90
1355;DHT22;671;48.972;9.276;2023-08-31T09:53:12;20.60;99.90
1355;DHT22;671;48.972;9.276;2023-08-31T09:55:39;20.70;99.90
1355;DHT22;671;48.972;9.276;2023-08-31T09:58:07;20.50;99.90
1355;DHT22;671;48.972;9.276;2023-08-31T10:00:36;20.40;99.90
1355;DHT22;671;48.972;9.276;2023-08-31T10:03:04;20.40;99.90
1355;DHT22;671;48.972;9.276;2023-08-31T10:05:31;20.20;99.90
1355;DHT22;671;48.972;9.276;2023-08-31T10:08:00;20.20;99.90
1355;DHT22;671;48.972;9.276;2023-08-31T10:10:28;20.30;99.90
1355;DHT22;671;48.972;9.276;2023-08-31T10:12:56;20.30;99.90
1355;DHT22;671;48.972;9.276;2023-08-31T10:15:28;20.40;99.90
1355;DHT22;671;48.972;9.276;2023-08-31T10:17:59;20.50;99.90
1355;DHT22;671;48.972;9.276;2023-08-31T10:20:26;20.60;99.90
1355;DHT22;671;48.972;9.276;2023-08-31T10:22:55;20.40;99.90
1355;DHT22;671;48.972;9.276;2023-08-31T10:25:24;20.30;99.90
1355;DHT22;671;48.972;9.276;2023-08-31T10:27:50;20.40;99.90
1355;DHT22;671;48.972;9.276;2023-08-31T10:38:29;21.50;99.90
1355;DHT22;671;48.972;9.276;2023-08-31T10:46:34;21.30;99.90
1355;DHT22;671;48.972;9.276;2023-08-31T10:49:13;21.40;99.90
1355;DHT22;671;48.972;9.276;2023-08-31T10:51:42;21.50;99.90
1355;DHT22;671;48.972;9.276;2023-08-31T10:57:00;21.40;99.90
1355;DHT22;671;48.972;9.276;2023-08-31T10:59:50;21.30;99.90
1355;DHT22;671;48.972;9.276;2023-08-31T11:02:32;21.60;99.90
1355;DHT22;671;48.972;9.276;2023-08-31T11:07:30;21.50;99.90
1355;DHT22;671;48.972;9.276;2023-08-31T11:10:26;21.50;99.90
1355;DHT22;671;48.972;9.276;2023-08-31T11:12:55;21.40;99.90
1355;DHT22;671;48.972;9.276;2023-08-31T11:15:26;21.40;99.90
1355;DHT22;671;48.972;9.276;2023-08-31T11:17:54;21.60;99.90
1355;DHT22;671;48.972;9.276;2023-08-31T11:20:22;21.70;99.90
1355;DHT22;671;48.972;9.276;2023-08-31T11:22:51;21.80;99.90
1355;DHT22;671;48.972;9.276;2023-08-31T11:25:19;21.70;99.90
1355;DHT22;671;48.972;9.276;2023-08-31T11:27:58;21.50;99.90
1355;DHT22;671;48.972;9.276;2023-08-31T11:30:29;21.50;99.90
1355;DHT22;671;48.972;9.276;2023-08-31T11:33:05;21.70;99.90
1355;DHT22;671;48.972;9.276;2023-08-31T11:35:43;21.90;99.90
1355;DHT22;671;48.972;9.276;2023-08-31T11:38:11;21.90;99.90
1355;DHT22;671;48.972;9.276;2023-08-31T11:40:38;21.80;99.90
1355;DHT22;671;48.972;9.276;2023-08-31T11:43:05;21.70;99.90
1355;DHT22;671;48.972;9.276;2023-08-31T11:45:33;21.70;99.90
1355;DHT22;671;48.972;9.276;2023-08-31T11:48:00;21.60;99.90
1355;DHT22;671;48.972;9.276;2023-08-31T11:50:27;21.50;99.90
1355;DHT22;671;48.972;9.276;2023-08-31T11:52:54;21.50;99.90
1355;DHT22;671;48.972;9.276;2023-08-31T11:55:21;21.50;99.90
1355;DHT22;671;48.972;9.276;2023-08-31T11:57:53;21.50;99.90
1355;DHT22;671;48.972;9.276;2023-08-31T12:00:23;21.60;99.90
1355;DHT22;671;48.972;9.276;2023-08-31T12:02:59;21.70;99.90
1355;DHT22;671;48.972;9.276;2023-08-31T12:05:27;21.90;99.90
1355;DHT22;671;48.972;9.276;2023-08-31T12:07:55;21.90;99.90
1355;DHT22;671;48.972;9.276;2023-08-31T12:10:24;22.00;99.90
1355;DHT22;671;48.972;9.276;2023-08-31T12:12:50;22.00;99.90
1355;DHT22;671;48.972;9.276;2023-08-31T12:15:19;22.10;99.90
1355;DHT22;671;48.972;9.276;2023-08-31T12:17:48;22.20;99.90
1355;DHT22;671;48.972;9.276;2023-08-31T12:20:25;22.20;99.90
1355;DHT22;671;48.972;9.276;2023-08-31T12:22:55;22.20;99.90
1355;DHT22;671;48.972;9.276;2023-08-31T12:25:22;22.10;99.90
1355;DHT22;671;48.972;9.276;2023-08-31T12:27:49;22.00;99.90
1355;DHT22;671;48.972;9.276;2023-08-31T12:30:16;21.90;99.90
1355;DHT22;671;48.972;9.276;2023-08-31T12:32:43;21.80;99.90
1355;DHT22;671;48.972;9.276;2023-08-31T12:35:09;21.90;99.90
1355;DHT22;671;48.972;9.276;2023-08-31T12:37:37;21.90;99.90
1355;DHT22;671;48.972;9.276;2023-08-31T12:40:05;21.90;99.90
1355;DHT22;671;48.972;9.276;2023-08-31T12:42:33;21.90;99.90
1355;DHT22;671;48.972;9.276;2023-08-31T12:44:59;21.90;99.90
1355;DHT22;671;48.972;9.276;2023-08-31T12:47:26;22.20;99.90
1355;DHT22;671;48.972;9.276;2023-08-31T12:49:52;22.30;99.90
1355;DHT22;671;48.972;9.276;2023-08-31T12:52:19;22.50;99.90
1355;DHT22;671;48.972;9.276;2023-08-31T12:54:45;22.50;99.90
1355;DHT22;671;48.972;9.276;2023-08-31T12:57:12;22.30;99.90
1355;DHT22;671;48.972;9.276;2023-08-31T12:59:39;22.20;99.90
1355;DHT22;671;48.972;9.276;2023-08-31T13:02:05;22.20;99.90
1355;DHT22;671;48.972;9.276;2023-08-31T13:04:36;22.30;99.90
1355;DHT22;671;48.972;9.276;2023-08-31T13:07:03;22.30;99.90
1355;DHT22;671;48.972;9.276;2023-08-31T13:09:31;22.30;99.90
1355;DHT22;671;48.972;9.276;2023-08-31T13:11:58;22.30;99.90
1355;DHT22;671;48.972;9.276;2023-08-31T13:14:24;22.30;99.90
1355;DHT22;671;48.972;9.276;2023-08-31T13:16:50;22.30;99.90
1355;DHT22;671;48.972;9.276;2023-08-31T13:19:17;22.20;99.90
1355;DHT22;671;48.972;9.276;2023-08-31T13:21:43;22.20;99.90
1355;DHT22;671;48.972;9.276;2023-08-31T13:24:12;22.50;99.90
1355;DHT22;671;48.972;9.276;2023-08-31T13:26:38;22.60;99.90
1355;DHT22;671;48.972;9.276;2023-08-31T13:29:05;22.60;99.90
1355;DHT22;671;48.972;9.276;2023-08-31T13:31:31;22.50;99.90
1355;DHT22;671;48.972;9.276;2023-08-31T13:33:58;22.50;99.90
1355;DHT22;671;48.972;9.276;2023-08-31T13:36:24;22.60;99.90
1355;DHT22;671;48.972;9.276;2023-08-31T13:38:51;22.70;99.90
1355;DHT22;671;48.972;9.276;2023-08-31T13:41:17;22.70;99.90
1355;DHT22;671;48.972;9.276;2023-08-31T13:43:43;22.70;99.90
1355;DHT22;671;48.972;9.276;2023-08-31T13:46:10;22.60;99.90
1355;DHT22;671;48.972;9.276;2023-08-31T13:48:37;22.50;99.90
1355;DHT22;671;48.972;9.276;2023-08-31T13:51:04;22.50;99.90
1355;DHT22;671;48.972;9.276;2023-08-31T13:53:30;22.60;99.90
1355;DHT22;671;48.972;9.276;2023-08-31T13:55:57;22.70;99.90
1355;DHT22;671;48.972;9.276;2023-08-31T13:58:23;22.70;99.90
1355;DHT22;671;48.972;9.276;2023-08-31T14:00:49;22.60;99.90
1355;DHT22;671;48.972;9.276;2023-08-31T14:03:16;22.60;99.90
1355;DHT22;671;48.972;9.276;2023-08-31T14:05:47;22.40;99.90
1355;DHT22;671;48.972;9.276;2023-08-31T14:08:14;22.30;99.90
1355;DHT22;671;48.972;9.276;2023-08-31T14:10:40;22.20;99.90
1355;DHT22;671;48.972;9.276;2023-08-31T14:13:07;22.10;99.90
1355;DHT22;671;48.972;9.276;2023-08-31T14:15:33;21.90;99.90
1355;DHT22;671;48.972;9.276;2023-08-31T14:18:00;21.80;99.90
1355;DHT22;671;48.972;9.276;2023-08-31T14:20:26;21.80;99.90
1355;DHT22;671;48.972;9.276;2023-08-31T14:22:53;21.70;99.90
1355;DHT22;671;48.972;9.276;2023-08-31T14:25:19;21.70;99.90
1355;DHT22;671;48.972;9.276;2023-08-31T14:27:49;21.70;99.90
1355;DHT22;671;48.972;9.276;2023-08-31T14:30:16;21.70;99.90
1355;DHT22;671;48.972;9.276;2023-08-31T14:32:42;21.70;99.90
1355;DHT22;671;48.972;9.276;2023-08-31T14:35:09;21.70;99.90
1355;DHT22;671;48.972;9.276;2023-08-31T14:37:36;21.60;99.90
1355;DHT22;671;48.972;9.276;2023-08-31T14:40:03;21.50;99.90
1355;DHT22;671;48.972;9.276;2023-08-31T14:42:33;21.50;99.90
1355;DHT22;671;48.972;9.276;2023-08-31T14:45:00;21.40;99.90
1355;DHT22;671;48.972;9.276;2023-08-31T14:47:26;21.20;99.90
1355;DHT22;671;48.972;9.276;2023-08-31T14:49:55;21.20;99.90
1355;DHT22;671;48.972;9.276;2023-08-31T14:52:21;21.00;99.90
1355;DHT22;671;48.972;9.276;2023-08-31T14:54:48;20.90;99.90
1355;DHT22;671;48.972;9.276;2023-08-31T14:57:15;20.90;99.90
1355;DHT22;671;48.972;9.276;2023-08-31T14:59:41;20.90;99.90
1355;DHT22;671;48.972;9.276;2023-08-31T15:02:08;20.90;99.90
1355;DHT22;671;48.972;9.276;2023-08-31T15:04:35;20.90;99.90
1355;DHT22;671;48.972;9.276;2023-08-31T15:07:01;20.90;99.90
1355;DHT22;671;48.972;9.276;2023-08-31T15:09:27;20.90;99.90
1355;DHT22;671;48.972;9.276;2023-08-31T15:11:54;21.00;99.90
1355;DHT22;671;48.972;9.276;2023-08-31T15:14:21;21.00;99.90
1355;DHT22;671;48.972;9.276;2023-08-31T15:16:47;21.10;99.90
1355;DHT22;671;48.972;9.276;2023-08-31T15:19:14;21.00;99.90
1355;DHT22;671;48.972;9.276;2023-08-31T15:21:40;21.10;99.90
1355;DHT22;671;48.972;9.276;2023-08-31T15:24:07;21.10;99.90
1355;DHT22;671;48.972;9.276;2023-08-31T15:26:33;21.20;99.90
1355;DHT22;671;48.972;9.276;2023-08-31T15:29:00;21.20;99.90
1355;DHT22;671;48.972;9.276;2023-08-31T15:31:26;21.20;99.90
1355;DHT22;671;48.972;9.276;2023-08-31T15:33:53;21.30;99.90
1355;DHT22;671;48.972;9.276;2023-08-31T15:36:19;21.30;99.90
1355;DHT22;671;48.972;9.276;2023-08-31T15:38:46;21.30;99.90
1355;DHT22;671;48.972;9.276;2023-08-31T15:41:13;21.20;99.90
1355;DHT22;671;48.972;9.276;2023-08-31T15:43:40;21.20;99.90
1355;DHT22;671;48.972;9.276;2023-08-31T15:46:08;21.20;99.90
1355;DHT22;671;48.972;9.276;2023-08-31T15:48:35;21.20;99.90
1355;DHT22;671;48.972;9.276;2023-08-31T15:51:02;21.20;99.90
1355;DHT22;671;48.972;9.276;2023-08-31T15:53:29;21.20;99.90
1355;DHT22;671;48.972;9.276;2023-08-31T15:55:56;21.10;99.90
1355;DHT22;671;48.972;9.276;2023-08-31T15:58:23;21.10;99.90
1355;DHT22;671;48.972;9.276;2023-08-31T16:00:52;21.00;99.90
1355;DHT22;671;48.972;9.276;2023-08-31T16:03:28;20.90;99.90
1355;DHT22;671;48.972;9.276;2023-08-31T16:05:57;20.70;99.90
1355;DHT22;671;48.972;9.276;2023-08-31T16:08:27;20.60;99.90
1355;DHT22;671;48.972;9.276;2023-08-31T16:10:54;20.50;99.90
1355;DHT22;671;48.972;9.276;2023-08-31T16:13:21;20.40;99.90
1355;DHT22;671;48.972;9.276;2023-08-31T16:15:48;20.30;99.90
1355;DHT22;671;48.972;9.276;2023-08-31T16:18:16;20.20;99.90
1355;DHT22;671;48.972;9.276;2023-08-31T16:20:43;20.10;99.90
1355;DHT22;671;48.972;9.276;2023-08-31T16:23:10;20.00;99.90
1355;DHT22;671;48.972;9.276;2023-08-31T16:25:37;19.90;99.90
1355;DHT22;671;48.972;9.276;2023-08-31T16:28:04;19.90;99.90
1355;DHT22;671;48.972;9.276;2023-08-31T16:30:30;19.70;99.90
1355;DHT22;671;48.972;9.276;2023-08-31T16:32:57;19.70;99.90
1355;DHT22;671;48.972;9.276;2023-08-31T16:35:24;19.60;99.90
1355;DHT22;671;48.972;9.276;2023-08-31T16:37:50;19.60;99.90
1355;DHT22;671;48.972;9.276;2023-08-31T16:40:17;19.60;99.90
1355;DHT22;671;48.972;9.276;2023-08-31T16:42:43;19.60;99.90